sensor_id;sensor_type;location;lat;lon;timestamp;P1;durP1;ratioP1;P2;durP2;ratioP2
21095;SDS011;10706;49.036;12.112;2022-11-13T00:01:16;53.50;;;8.57;;
21095;SDS011;10706;49.036;12.112;2022-11-13T00:03:48;78.40;;;9.07;;
21095;SDS011;10706;49.036;12.112;2022-11-13T00:06:15;98.47;;;10.67;;
21095;SDS011;10706;49.036;12.112;2022-11-13T00:08:42;78.27;;;7.97;;
21095;SDS011;10706;49.036;12.112;2022-11-13T00:11:13;57.23;;;8.13;;
21095;SDS011;10706;49.036;12.112;2022-11-13T00:13:43;35.97;;;7.17;;
21095;SDS011;10706;49.036;12.112;2022-11-13T00:16:11;44.40;;;6.53;;
21095;SDS011;10706;49.036;12.112;2022-11-13T00:18:40;56.30;;;7.37;;
21095;SDS011;10706;49.036;12.112;2022-11-13T00:21:06;31.67;;;5.83;;
21095;SDS011;10706;49.036;12.112;2022-11-13T00:23:44;45.40;;;6.67;;
21095;SDS011;10706;49.036;12.112;2022-11-13T00:26:14;45.03;;;6.23;;
21095;SDS011;10706;49.036;12.112;2022-11-13T00:28:45;22.33;;;5.30;;
21095;SDS011;10706;49.036;12.112;2022-11-13T00:31:12;37.70;;;5.87;;
21095;SDS011;10706;49.036;12.112;2022-11-13T00:33:39;39.50;;;5.90;;
21095;SDS011;10706;49.036;12.112;2022-11-13T00:36:06;44.37;;;5.67;;
21095;SDS011;10706;49.036;12.112;2022-11-13T00:38:42;44.67;;;6.37;;
21095;SDS011;10706;49.036;12.112;2022-11-13T00:41:08;30.30;;;5.23;;
21095;SDS011;10706;49.036;12.112;2022-11-13T00:43:34;72.27;;;7.07;;
21095;SDS011;10706;49.036;12.112;2022-11-13T00:46:00;53.13;;;6.73;;
21095;SDS011;10706;49.036;12.112;2022-11-13T00:48:27;42.30;;;6.00;;
21095;SDS011;10706;49.036;12.112;2022-11-13T00:50:52;38.40;;;7.07;;
21095;SDS011;10706;49.036;12.112;2022-11-13T00:53:18;45.53;;;6.70;;
21095;SDS011;10706;49.036;12.112;2022-11-13T00:55:45;46.77;;;6.93;;
21095;SDS011;10706;49.036;12.112;2022-11-13T00:58:11;54.00;;;6.10;;
21095;SDS011;10706;49.036;12.112;2022-11-13T01:00:38;88.90;;;7.70;;
21095;SDS011;10706;49.036;12.112;2022-11-13T01:03:06;42.63;;;5.97;;
21095;SDS011;10706;49.036;12.112;2022-11-13T01:05:39;51.93;;;6.37;;
21095;SDS011;10706;49.036;12.112;2022-11-13T01:08:07;40.53;;;5.63;;
21095;SDS011;10706;49.036;12.112;2022-11-13T01:10:37;51.83;;;5.60;;
21095;SDS011;10706;49.036;12.112;2022-11-13T01:13:09;30.90;;;6.17;;
21095;SDS011;10706;49.036;12.112;2022-11-13T01:15:38;43.17;;;6.00;;
21095;SDS011;10706;49.036;12.112;2022-11-13T01:20:31;28.53;;;6.00;;
21095;SDS011;10706;49.036;12.112;2022-11-13T01:22:57;28.17;;;5.17;;
21095;SDS011;10706;49.036;12.112;2022-11-13T01:25:23;33.30;;;5.50;;
21095;SDS011;10706;49.036;12.112;2022-11-13T01:27:49;36.20;;;6.00;;
21095;SDS011;10706;49.036;12.112;2022-11-13T01:30:15;30.80;;;4.83;;
21095;SDS011;10706;49.036;12.112;2022-11-13T01:32:41;58.47;;;6.70;;
21095;SDS011;10706;49.036;12.112;2022-11-13T01:35:07;46.13;;;5.50;;
21095;SDS011;10706;49.036;12.112;2022-11-13T01:37:33;41.07;;;6.20;;
21095;SDS011;10706;49.036;12.112;2022-11-13T01:39:58;27.27;;;4.57;;
21095;SDS011;10706;49.036;12.112;2022-11-13T01:42:24;36.10;;;5.27;;
21095;SDS011;10706;49.036;12.112;2022-11-13T01:44:51;34.70;;;5.30;;
21095;SDS011;10706;49.036;12.112;2022-11-13T01:47:26;34.17;;;5.20;;
21095;SDS011;10706;49.036;12.112;2022-11-13T01:49:57;39.27;;;5.37;;
21095;SDS011;10706;49.036;12.112;2022-11-13T01:52:27;36.10;;;6.03;;
21095;SDS011;10706;49.036;12.112;2022-11-13T01:55:04;26.47;;;5.37;;
21095;SDS011;10706;49.036;12.112;2022-11-13T01:57:36;45.83;;;6.17;;
21095;SDS011;10706;49.036;12.112;2022-11-13T02:00:07;21.50;;;5.37;;
21095;SDS011;10706;49.036;12.112;2022-11-13T02:02:35;26.07;;;5.70;;
21095;SDS011;10706;49.036;12.112;2022-11-13T02:05:02;31.67;;;5.57;;
21095;SDS011;10706;49.036;12.112;2022-11-13T02:07:28;39.30;;;5.97;;
21095;SDS011;10706;49.036;12.112;2022-11-13T02:09:54;68.03;;;7.93;;
21095;SDS011;10706;49.036;12.112;2022-11-13T02:12:44;48.43;;;7.00;;
21095;SDS011;10706;49.036;12.112;2022-11-13T02:15:13;53.87;;;6.60;;
21095;SDS011;10706;49.036;12.112;2022-11-13T02:17:41;56.87;;;6.80;;
21095;SDS011;10706;49.036;12.112;2022-11-13T02:20:14;78.77;;;8.47;;
21095;SDS011;10706;49.036;12.112;2022-11-13T02:25:25;53.40;;;6.67;;
21095;SDS011;10706;49.036;12.112;2022-11-13T02:27:52;30.80;;;5.80;;
21095;SDS011;10706;49.036;12.112;2022-11-13T02:30:25;44.80;;;6.23;;
21095;SDS011;10706;49.036;12.112;2022-11-13T02:32:55;41.33;;;5.60;;
21095;SDS011;10706;49.036;12.112;2022-11-13T02:35:26;31.30;;;5.83;;
21095;SDS011;10706;49.036;12.112;2022-11-13T02:38:00;30.73;;;5.83;;
21095;SDS011;10706;49.036;12.112;2022-11-13T02:40:29;25.70;;;5.97;;
21095;SDS011;10706;49.036;12.112;2022-11-13T02:42:56;40.00;;;6.30;;
21095;SDS011;10706;49.036;12.112;2022-11-13T02:45:22;38.83;;;5.87;;
21095;SDS011;10706;49.036;12.112;2022-11-13T02:47:48;33.83;;;6.10;;
21095;SDS011;10706;49.036;12.112;2022-11-13T02:50:14;26.83;;;6.00;;
21095;SDS011;10706;49.036;12.112;2022-11-13T02:52:41;31.40;;;6.20;;
21095;SDS011;10706;49.036;12.112;2022-11-13T02:55:07;28.33;;;5.23;;
21095;SDS011;10706;49.036;12.112;2022-11-13T02:57:33;38.43;;;6.83;;
21095;SDS011;10706;49.036;12.112;2022-11-13T02:59:59;28.03;;;6.30;;
21095;SDS011;10706;49.036;12.112;2022-11-13T03:02:24;25.23;;;6.00;;
21095;SDS011;10706;49.036;12.112;2022-11-13T03:04:50;35.37;;;6.13;;
21095;SDS011;10706;49.036;12.112;2022-11-13T03:07:16;33.73;;;6.00;;
21095;SDS011;10706;49.036;12.112;2022-11-13T03:09:42;20.10;;;5.23;;
21095;SDS011;10706;49.036;12.112;2022-11-13T03:12:07;32.03;;;6.23;;
21095;SDS011;10706;49.036;12.112;2022-11-13T03:14:34;24.03;;;5.97;;
21095;SDS011;10706;49.036;12.112;2022-11-13T03:17:00;53.33;;;8.07;;
21095;SDS011;10706;49.036;12.112;2022-11-13T03:19:26;42.93;;;7.57;;
21095;SDS011;10706;49.036;12.112;2022-11-13T03:21:52;56.63;;;8.60;;
21095;SDS011;10706;49.036;12.112;2022-11-13T03:24:19;37.70;;;6.87;;
21095;SDS011;10706;49.036;12.112;2022-11-13T03:26:45;69.27;;;7.40;;
21095;SDS011;10706;49.036;12.112;2022-11-13T03:29:11;43.17;;;7.33;;
21095;SDS011;10706;49.036;12.112;2022-11-13T03:31:37;26.83;;;5.40;;
21095;SDS011;10706;49.036;12.112;2022-11-13T03:34:03;40.13;;;6.73;;
21095;SDS011;10706;49.036;12.112;2022-11-13T03:36:29;66.17;;;7.20;;
21095;SDS011;10706;49.036;12.112;2022-11-13T03:38:54;57.70;;;6.87;;
21095;SDS011;10706;49.036;12.112;2022-11-13T03:41:21;62.80;;;6.47;;
21095;SDS011;10706;49.036;12.112;2022-11-13T03:43:47;79.27;;;8.50;;
21095;SDS011;10706;49.036;12.112;2022-11-13T03:46:13;50.60;;;7.53;;
21095;SDS011;10706;49.036;12.112;2022-11-13T03:48:39;44.33;;;7.17;;
21095;SDS011;10706;49.036;12.112;2022-11-13T03:51:04;54.07;;;7.23;;
21095;SDS011;10706;49.036;12.112;2022-11-13T03:53:30;41.63;;;6.80;;
21095;SDS011;10706;49.036;12.112;2022-11-13T03:55:56;75.13;;;8.37;;
21095;SDS011;10706;49.036;12.112;2022-11-13T03:58:23;53.87;;;7.47;;
21095;SDS011;10706;49.036;12.112;2022-11-13T04:00:49;54.03;;;7.00;;
21095;SDS011;10706;49.036;12.112;2022-11-13T04:03:18;37.90;;;7.00;;
21095;SDS011;10706;49.036;12.112;2022-11-13T04:05:46;55.17;;;8.00;;
21095;SDS011;10706;49.036;12.112;2022-11-13T04:08:13;57.37;;;7.17;;
21095;SDS011;10706;49.036;12.112;2022-11-13T04:10:39;38.17;;;6.33;;
21095;SDS011;10706;49.036;12.112;2022-11-13T04:13:06;85.73;;;9.40;;
21095;SDS011;10706;49.036;12.112;2022-11-13T04:15:32;35.50;;;6.50;;
21095;SDS011;10706;49.036;12.112;2022-11-13T04:17:57;39.70;;;7.23;;
21095;SDS011;10706;49.036;12.112;2022-11-13T04:20:23;27.20;;;6.50;;
21095;SDS011;10706;49.036;12.112;2022-11-13T04:22:51;32.83;;;6.73;;
21095;SDS011;10706;49.036;12.112;2022-11-13T04:25:18;23.40;;;6.20;;
21095;SDS011;10706;49.036;12.112;2022-11-13T04:27:44;20.57;;;6.10;;
21095;SDS011;10706;49.036;12.112;2022-11-13T04:30:10;36.47;;;7.83;;
21095;SDS011;10706;49.036;12.112;2022-11-13T04:32:36;33.27;;;6.90;;
21095;SDS011;10706;49.036;12.112;2022-11-13T04:35:02;37.63;;;7.40;;
21095;SDS011;10706;49.036;12.112;2022-11-13T04:37:27;47.13;;;7.53;;
21095;SDS011;10706;49.036;12.112;2022-11-13T04:39:53;29.63;;;7.07;;
21095;SDS011;10706;49.036;12.112;2022-11-13T04:42:19;28.63;;;7.13;;
21095;SDS011;10706;49.036;12.112;2022-11-13T04:45:03;37.50;;;6.50;;
21095;SDS011;10706;49.036;12.112;2022-11-13T04:47:30;32.97;;;7.10;;
21095;SDS011;10706;49.036;12.112;2022-11-13T04:49:55;28.53;;;6.67;;
21095;SDS011;10706;49.036;12.112;2022-11-13T04:52:21;35.60;;;7.63;;
21095;SDS011;10706;49.036;12.112;2022-11-13T04:54:47;34.73;;;9.47;;
21095;SDS011;10706;49.036;12.112;2022-11-13T04:57:12;32.30;;;7.43;;
21095;SDS011;10706;49.036;12.112;2022-11-13T04:59:38;50.07;;;9.27;;
21095;SDS011;10706;49.036;12.112;2022-11-13T05:02:04;37.80;;;9.20;;
21095;SDS011;10706;49.036;12.112;2022-11-13T05:04:30;48.37;;;10.77;;
21095;SDS011;10706;49.036;12.112;2022-11-13T05:06:56;45.53;;;10.97;;
21095;SDS011;10706;49.036;12.112;2022-11-13T05:09:22;54.57;;;13.97;;
21095;SDS011;10706;49.036;12.112;2022-11-13T05:11:48;74.03;;;18.13;;
21095;SDS011;10706;49.036;12.112;2022-11-13T05:14:14;52.67;;;18.67;;
21095;SDS011;10706;49.036;12.112;2022-11-13T05:16:40;51.53;;;17.23;;
21095;SDS011;10706;49.036;12.112;2022-11-13T05:19:06;57.00;;;18.53;;
21095;SDS011;10706;49.036;12.112;2022-11-13T05:21:33;65.03;;;20.27;;
21095;SDS011;10706;49.036;12.112;2022-11-13T05:23:59;52.80;;;19.60;;
21095;SDS011;10706;49.036;12.112;2022-11-13T05:26:25;50.43;;;16.77;;
21095;SDS011;10706;49.036;12.112;2022-11-13T05:28:51;39.63;;;14.97;;
21095;SDS011;10706;49.036;12.112;2022-11-13T05:31:20;39.87;;;14.23;;
21095;SDS011;10706;49.036;12.112;2022-11-13T05:33:46;38.80;;;14.57;;
21095;SDS011;10706;49.036;12.112;2022-11-13T05:36:12;36.57;;;10.93;;
21095;SDS011;10706;49.036;12.112;2022-11-13T05:38:40;28.00;;;10.63;;
21095;SDS011;10706;49.036;12.112;2022-11-13T05:41:07;23.10;;;9.47;;
21095;SDS011;10706;49.036;12.112;2022-11-13T05:43:41;40.23;;;8.27;;
21095;SDS011;10706;49.036;12.112;2022-11-13T05:46:12;18.47;;;7.63;;
21095;SDS011;10706;49.036;12.112;2022-11-13T05:48:41;17.37;;;6.83;;
21095;SDS011;10706;49.036;12.112;2022-11-13T05:51:17;19.33;;;6.47;;
21095;SDS011;10706;49.036;12.112;2022-11-13T05:53:48;25.30;;;6.33;;
21095;SDS011;10706;49.036;12.112;2022-11-13T05:56:20;14.00;;;5.53;;
21095;SDS011;10706;49.036;12.112;2022-11-13T05:58:48;15.33;;;6.40;;
21095;SDS011;10706;49.036;12.112;2022-11-13T06:01:16;17.23;;;6.60;;
21095;SDS011;10706;49.036;12.112;2022-11-13T06:03:58;14.17;;;5.83;;
21095;SDS011;10706;49.036;12.112;2022-11-13T06:06:26;14.50;;;6.10;;
21095;SDS011;10706;49.036;12.112;2022-11-13T06:08:54;18.07;;;6.70;;
21095;SDS011;10706;49.036;12.112;2022-11-13T06:11:22;22.03;;;6.07;;
21095;SDS011;10706;49.036;12.112;2022-11-13T06:13:51;36.73;;;7.27;;
21095;SDS011;10706;49.036;12.112;2022-11-13T06:16:23;30.87;;;6.90;;
21095;SDS011;10706;49.036;12.112;2022-11-13T06:18:53;24.03;;;6.50;;
21095;SDS011;10706;49.036;12.112;2022-11-13T06:21:24;36.23;;;7.90;;
21095;SDS011;10706;49.036;12.112;2022-11-13T06:23:53;42.17;;;6.77;;
21095;SDS011;10706;49.036;12.112;2022-11-13T06:26:22;39.43;;;7.53;;
21095;SDS011;10706;49.036;12.112;2022-11-13T06:28:58;24.90;;;6.53;;
21095;SDS011;10706;49.036;12.112;2022-11-13T06:31:26;38.23;;;7.40;;
21095;SDS011;10706;49.036;12.112;2022-11-13T06:33:55;40.80;;;7.30;;
21095;SDS011;10706;49.036;12.112;2022-11-13T06:36:25;38.57;;;6.83;;
21095;SDS011;10706;49.036;12.112;2022-11-13T06:38:56;51.87;;;8.53;;
21095;SDS011;10706;49.036;12.112;2022-11-13T06:41:23;29.63;;;6.77;;
21095;SDS011;10706;49.036;12.112;2022-11-13T06:43:53;25.73;;;6.57;;
21095;SDS011;10706;49.036;12.112;2022-11-13T06:46:21;49.10;;;8.17;;
21095;SDS011;10706;49.036;12.112;2022-11-13T06:48:49;41.77;;;7.10;;
21095;SDS011;10706;49.036;12.112;2022-11-13T06:51:19;35.97;;;6.93;;
21095;SDS011;10706;49.036;12.112;2022-11-13T06:53:52;66.73;;;10.30;;
21095;SDS011;10706;49.036;12.112;2022-11-13T06:56:18;54.70;;;9.63;;
21095;SDS011;10706;49.036;12.112;2022-11-13T06:58:45;53.40;;;8.27;;
21095;SDS011;10706;49.036;12.112;2022-11-13T07:01:29;57.47;;;9.70;;
21095;SDS011;10706;49.036;12.112;2022-11-13T07:03:54;30.63;;;7.90;;
21095;SDS011;10706;49.036;12.112;2022-11-13T07:06:21;57.57;;;8.33;;
21095;SDS011;10706;49.036;12.112;2022-11-13T07:08:48;36.23;;;7.47;;
21095;SDS011;10706;49.036;12.112;2022-11-13T07:11:16;17.10;;;6.60;;
21095;SDS011;10706;49.036;12.112;2022-11-13T07:13:44;35.43;;;7.07;;
21095;SDS011;10706;49.036;12.112;2022-11-13T07:16:11;17.07;;;6.67;;
21095;SDS011;10706;49.036;12.112;2022-11-13T07:18:39;29.17;;;7.40;;
21095;SDS011;10706;49.036;12.112;2022-11-13T07:21:06;22.67;;;8.20;;
21095;SDS011;10706;49.036;12.112;2022-11-13T07:23:35;26.93;;;12.87;;
21095;SDS011;10706;49.036;12.112;2022-11-13T07:26:05;26.60;;;14.57;;
21095;SDS011;10706;49.036;12.112;2022-11-13T07:28:30;17.30;;;6.90;;
21095;SDS011;10706;49.036;12.112;2022-11-13T07:30:57;21.60;;;11.13;;
21095;SDS011;10706;49.036;12.112;2022-11-13T07:33:23;16.07;;;7.30;;
21095;SDS011;10706;49.036;12.112;2022-11-13T07:35:51;18.20;;;7.60;;
21095;SDS011;10706;49.036;12.112;2022-11-13T07:38:21;16.93;;;7.00;;
21095;SDS011;10706;49.036;12.112;2022-11-13T07:40:48;16.47;;;6.97;;
21095;SDS011;10706;49.036;12.112;2022-11-13T07:43:14;20.90;;;8.27;;
21095;SDS011;10706;49.036;12.112;2022-11-13T07:45:40;17.77;;;8.00;;
21095;SDS011;10706;49.036;12.112;2022-11-13T07:48:05;18.63;;;8.10;;
21095;SDS011;10706;49.036;12.112;2022-11-13T07:50:33;20.07;;;7.80;;
21095;SDS011;10706;49.036;12.112;2022-11-13T07:53:01;19.60;;;8.83;;
21095;SDS011;10706;49.036;12.112;2022-11-13T07:55:30;19.97;;;9.30;;
21095;SDS011;10706;49.036;12.112;2022-11-13T07:57:58;17.47;;;7.33;;
21095;SDS011;10706;49.036;12.112;2022-11-13T08:00:25;16.37;;;7.43;;
21095;SDS011;10706;49.036;12.112;2022-11-13T08:02:52;18.60;;;7.37;;
21095;SDS011;10706;49.036;12.112;2022-11-13T08:05:18;17.13;;;7.97;;
21095;SDS011;10706;49.036;12.112;2022-11-13T08:07:45;18.37;;;7.10;;
21095;SDS011;10706;49.036;12.112;2022-11-13T08:10:16;17.97;;;8.67;;
21095;SDS011;10706;49.036;12.112;2022-11-13T08:12:44;19.53;;;7.90;;
21095;SDS011;10706;49.036;12.112;2022-11-13T08:15:11;19.47;;;8.10;;
21095;SDS011;10706;49.036;12.112;2022-11-13T08:17:37;23.20;;;8.73;;
21095;SDS011;10706;49.036;12.112;2022-11-13T08:20:03;20.27;;;8.73;;
21095;SDS011;10706;49.036;12.112;2022-11-13T08:22:30;21.13;;;9.80;;
21095;SDS011;10706;49.036;12.112;2022-11-13T08:24:56;32.47;;;15.30;;
21095;SDS011;10706;49.036;12.112;2022-11-13T08:27:22;55.07;;;31.03;;
21095;SDS011;10706;49.036;12.112;2022-11-13T08:29:49;22.53;;;10.57;;
21095;SDS011;10706;49.036;12.112;2022-11-13T08:32:16;20.43;;;9.57;;
21095;SDS011;10706;49.036;12.112;2022-11-13T08:34:43;19.30;;;9.93;;
21095;SDS011;10706;49.036;12.112;2022-11-13T08:37:09;19.13;;;8.87;;
21095;SDS011;10706;49.036;12.112;2022-11-13T08:39:35;21.37;;;8.90;;
21095;SDS011;10706;49.036;12.112;2022-11-13T08:42:02;17.97;;;8.13;;
21095;SDS011;10706;49.036;12.112;2022-11-13T08:44:29;16.80;;;8.40;;
21095;SDS011;10706;49.036;12.112;2022-11-13T08:46:55;17.43;;;7.93;;
21095;SDS011;10706;49.036;12.112;2022-11-13T08:49:22;17.63;;;7.37;;
21095;SDS011;10706;49.036;12.112;2022-11-13T08:51:48;20.40;;;8.70;;
21095;SDS011;10706;49.036;12.112;2022-11-13T08:54:13;18.67;;;7.83;;
21095;SDS011;10706;49.036;12.112;2022-11-13T08:56:39;15.77;;;7.47;;
21095;SDS011;10706;49.036;12.112;2022-11-13T08:59:05;16.57;;;8.07;;
21095;SDS011;10706;49.036;12.112;2022-11-13T09:01:31;18.70;;;8.57;;
21095;SDS011;10706;49.036;12.112;2022-11-13T09:03:56;20.23;;;8.03;;
21095;SDS011;10706;49.036;12.112;2022-11-13T09:06:23;18.40;;;7.57;;
21095;SDS011;10706;49.036;12.112;2022-11-13T09:08:49;16.67;;;7.00;;
21095;SDS011;10706;49.036;12.112;2022-11-13T09:11:15;14.97;;;6.80;;
21095;SDS011;10706;49.036;12.112;2022-11-13T09:13:41;19.73;;;8.03;;
21095;SDS011;10706;49.036;12.112;2022-11-13T09:16:07;18.77;;;8.87;;
21095;SDS011;10706;49.036;12.112;2022-11-13T09:18:33;17.47;;;7.63;;
21095;SDS011;10706;49.036;12.112;2022-11-13T09:20:59;16.80;;;8.03;;
21095;SDS011;10706;49.036;12.112;2022-11-13T09:23:27;17.20;;;8.37;;
21095;SDS011;10706;49.036;12.112;2022-11-13T09:25:53;18.03;;;8.50;;
21095;SDS011;10706;49.036;12.112;2022-11-13T09:28:19;20.17;;;8.17;;
21095;SDS011;10706;49.036;12.112;2022-11-13T09:30:45;17.63;;;7.23;;
21095;SDS011;10706;49.036;12.112;2022-11-13T09:33:11;17.17;;;7.43;;
21095;SDS011;10706;49.036;12.112;2022-11-13T09:35:42;16.10;;;7.37;;
21095;SDS011;10706;49.036;12.112;2022-11-13T09:38:09;13.70;;;6.27;;
21095;SDS011;10706;49.036;12.112;2022-11-13T09:40:42;16.30;;;7.63;;
21095;SDS011;10706;49.036;12.112;2022-11-13T09:43:50;16.90;;;6.27;;
21095;SDS011;10706;49.036;12.112;2022-11-13T09:49:24;14.20;;;6.70;;
21095;SDS011;10706;49.036;12.112;2022-11-13T09:51:56;14.60;;;6.27;;
21095;SDS011;10706;49.036;12.112;2022-11-13T09:54:26;13.63;;;6.37;;
21095;SDS011;10706;49.036;12.112;2022-11-13T09:56:59;14.77;;;5.73;;
21095;SDS011;10706;49.036;12.112;2022-11-13T10:05:53;15.93;;;6.20;;
21095;SDS011;10706;49.036;12.112;2022-11-13T10:11:38;12.60;;;6.00;;
21095;SDS011;10706;49.036;12.112;2022-11-13T10:14:19;14.30;;;6.53;;
21095;SDS011;10706;49.036;12.112;2022-11-13T10:17:16;14.80;;;6.20;;
21095;SDS011;10706;49.036;12.112;2022-11-13T10:20:01;15.90;;;6.80;;
21095;SDS011;10706;49.036;12.112;2022-11-13T10:22:35;16.33;;;6.57;;
21095;SDS011;10706;49.036;12.112;2022-11-13T10:25:25;14.37;;;5.87;;
21095;SDS011;10706;49.036;12.112;2022-11-13T10:27:56;14.33;;;6.53;;
21095;SDS011;10706;49.036;12.112;2022-11-13T10:30:24;14.73;;;6.17;;
21095;SDS011;10706;49.036;12.112;2022-11-13T10:32:50;13.93;;;7.13;;
21095;SDS011;10706;49.036;12.112;2022-11-13T10:35:24;14.80;;;6.97;;
21095;SDS011;10706;49.036;12.112;2022-11-13T10:45:57;18.43;;;7.27;;
21095;SDS011;10706;49.036;12.112;2022-11-13T10:48:35;16.83;;;8.03;;
21095;SDS011;10706;49.036;12.112;2022-11-13T10:51:02;16.40;;;7.60;;
21095;SDS011;10706;49.036;12.112;2022-11-13T10:53:43;16.63;;;7.63;;
21095;SDS011;10706;49.036;12.112;2022-11-13T10:59:11;17.58;;;7.40;;
21095;SDS011;10706;49.036;12.112;2022-11-13T11:01:42;18.08;;;8.05;;
21095;SDS011;10706;49.036;12.112;2022-11-13T11:04:20;20.55;;;7.55;;
21095;SDS011;10706;49.036;12.112;2022-11-13T11:06:51;17.00;;;7.40;;
21095;SDS011;10706;49.036;12.112;2022-11-13T11:09:25;17.17;;;7.07;;
21095;SDS011;10706;49.036;12.112;2022-11-13T11:14:43;18.05;;;7.20;;
21095;SDS011;10706;49.036;12.112;2022-11-13T11:17:38;17.20;;;7.18;;
21095;SDS011;10706;49.036;12.112;2022-11-13T11:20:22;18.48;;;7.05;;
21095;SDS011;10706;49.036;12.112;2022-11-13T11:23:24;14.95;;;6.90;;
21095;SDS011;10706;49.036;12.112;2022-11-13T11:29:36;16.70;;;7.47;;
21095;SDS011;10706;49.036;12.112;2022-11-13T11:35:10;15.98;;;6.35;;
21095;SDS011;10706;49.036;12.112;2022-11-13T11:37:52;16.75;;;6.80;;
21095;SDS011;10706;49.036;12.112;2022-11-13T11:40:41;17.20;;;6.55;;
21095;SDS011;10706;49.036;12.112;2022-11-13T11:43:35;16.33;;;6.93;;
21095;SDS011;10706;49.036;12.112;2022-11-13T11:46:43;16.50;;;6.60;;
21095;SDS011;10706;49.036;12.112;2022-11-13T11:49:09;17.58;;;6.68;;
21095;SDS011;10706;49.036;12.112;2022-11-13T11:51:43;19.23;;;7.68;;
21095;SDS011;10706;49.036;12.112;2022-11-13T11:55:04;16.48;;;7.68;;
21095;SDS011;10706;49.036;12.112;2022-11-13T11:58:06;15.00;;;6.60;;
21095;SDS011;10706;49.036;12.112;2022-11-13T12:01:03;16.80;;;7.30;;
21095;SDS011;10706;49.036;12.112;2022-11-13T12:06:33;16.13;;;7.70;;
21095;SDS011;10706;49.036;12.112;2022-11-13T12:09:30;16.77;;;7.03;;
21095;SDS011;10706;49.036;12.112;2022-11-13T12:15:09;17.40;;;7.95;;
21095;SDS011;10706;49.036;12.112;2022-11-13T12:24:00;17.02;;;6.82;;
21095;SDS011;10706;49.036;12.112;2022-11-13T12:35:27;17.10;;;6.85;;
21095;SDS011;10706;49.036;12.112;2022-11-13T12:40:35;17.73;;;7.65;;
21095;SDS011;10706;49.036;12.112;2022-11-13T12:46:12;16.17;;;7.20;;
21095;SDS011;10706;49.036;12.112;2022-11-13T12:48:39;20.27;;;8.52;;
21095;SDS011;10706;49.036;12.112;2022-11-13T12:51:09;17.27;;;7.72;;
21095;SDS011;10706;49.036;12.112;2022-11-13T12:53:43;17.20;;;7.38;;
21095;SDS011;10706;49.036;12.112;2022-11-13T12:58:56;17.13;;;7.45;;
21095;SDS011;10706;49.036;12.112;2022-11-13T13:01:43;17.60;;;7.20;;
21095;SDS011;10706;49.036;12.112;2022-11-13T13:15:42;18.73;;;8.63;;
21095;SDS011;10706;49.036;12.112;2022-11-13T13:20:44;18.88;;;8.07;;
21095;SDS011;10706;49.036;12.112;2022-11-13T13:23:32;17.98;;;8.00;;
21095;SDS011;10706;49.036;12.112;2022-11-13T13:26:05;18.27;;;7.75;;
21095;SDS011;10706;49.036;12.112;2022-11-13T13:28:52;15.23;;;7.80;;
21095;SDS011;10706;49.036;12.112;2022-11-13T13:48:43;16.52;;;7.32;;
21095;SDS011;10706;49.036;12.112;2022-11-13T13:51:14;18.38;;;7.53;;
21095;SDS011;10706;49.036;12.112;2022-11-13T13:53:58;18.27;;;7.50;;
21095;SDS011;10706;49.036;12.112;2022-11-13T13:56:29;16.27;;;7.18;;
21095;SDS011;10706;49.036;12.112;2022-11-13T13:58:56;17.50;;;7.75;;
21095;SDS011;10706;49.036;12.112;2022-11-13T14:01:28;20.08;;;8.25;;
21095;SDS011;10706;49.036;12.112;2022-11-13T14:04:02;19.58;;;8.57;;
21095;SDS011;10706;49.036;12.112;2022-11-13T14:06:57;19.73;;;8.45;;
21095;SDS011;10706;49.036;12.112;2022-11-13T14:09:26;19.77;;;8.15;;
21095;SDS011;10706;49.036;12.112;2022-11-13T14:12:02;17.83;;;7.53;;
21095;SDS011;10706;49.036;12.112;2022-11-13T14:14:32;18.25;;;7.63;;
21095;SDS011;10706;49.036;12.112;2022-11-13T14:16:58;19.27;;;8.07;;
21095;SDS011;10706;49.036;12.112;2022-11-13T14:19:25;20.00;;;8.57;;
21095;SDS011;10706;49.036;12.112;2022-11-13T14:21:56;20.13;;;9.00;;
21095;SDS011;10706;49.036;12.112;2022-11-13T14:24:27;15.03;;;6.70;;
21095;SDS011;10706;49.036;12.112;2022-11-13T14:27:18;18.13;;;8.47;;
21095;SDS011;10706;49.036;12.112;2022-11-13T14:29:59;17.07;;;7.27;;
21095;SDS011;10706;49.036;12.112;2022-11-13T14:32:28;19.50;;;8.70;;
21095;SDS011;10706;49.036;12.112;2022-11-13T14:35:02;19.83;;;9.17;;
21095;SDS011;10706;49.036;12.112;2022-11-13T14:37:31;21.30;;;9.00;;
21095;SDS011;10706;49.036;12.112;2022-11-13T14:42:50;20.20;;;9.03;;
21095;SDS011;10706;49.036;12.112;2022-11-13T14:45:31;23.00;;;10.27;;
21095;SDS011;10706;49.036;12.112;2022-11-13T14:53:25;20.33;;;9.03;;
21095;SDS011;10706;49.036;12.112;2022-11-13T14:56:18;20.17;;;8.53;;
21095;SDS011;10706;49.036;12.112;2022-11-13T14:58:44;21.40;;;9.20;;
21095;SDS011;10706;49.036;12.112;2022-11-13T15:03:43;19.27;;;8.20;;
21095;SDS011;10706;49.036;12.112;2022-11-13T15:06:14;23.23;;;9.53;;
21095;SDS011;10706;49.036;12.112;2022-11-13T15:08:49;24.10;;;9.50;;
21095;SDS011;10706;49.036;12.112;2022-11-13T15:11:23;19.33;;;8.90;;
21095;SDS011;10706;49.036;12.112;2022-11-13T15:13:50;21.37;;;8.43;;
21095;SDS011;10706;49.036;12.112;2022-11-13T15:16:23;17.03;;;6.90;;
21095;SDS011;10706;49.036;12.112;2022-11-13T15:18:59;20.63;;;8.67;;
21095;SDS011;10706;49.036;12.112;2022-11-13T15:21:31;20.50;;;9.57;;
21095;SDS011;10706;49.036;12.112;2022-11-13T15:23:57;23.17;;;10.27;;
21095;SDS011;10706;49.036;12.112;2022-11-13T15:26:25;19.47;;;9.03;;
21095;SDS011;10706;49.036;12.112;2022-11-13T15:28:50;23.40;;;10.50;;
21095;SDS011;10706;49.036;12.112;2022-11-13T15:31:22;21.97;;;9.40;;
21095;SDS011;10706;49.036;12.112;2022-11-13T15:34:00;22.73;;;10.53;;
21095;SDS011;10706;49.036;12.112;2022-11-13T15:36:26;23.13;;;11.00;;
21095;SDS011;10706;49.036;12.112;2022-11-13T15:38:51;23.93;;;9.77;;
21095;SDS011;10706;49.036;12.112;2022-11-13T15:41:19;22.17;;;9.73;;
21095;SDS011;10706;49.036;12.112;2022-11-13T15:43:48;26.40;;;10.90;;
21095;SDS011;10706;49.036;12.112;2022-11-13T15:46:17;23.70;;;10.13;;
21095;SDS011;10706;49.036;12.112;2022-11-13T15:48:46;22.60;;;8.83;;
21095;SDS011;10706;49.036;12.112;2022-11-13T15:51:19;23.90;;;10.73;;
21095;SDS011;10706;49.036;12.112;2022-11-13T15:54:11;26.17;;;11.23;;
21095;SDS011;10706;49.036;12.112;2022-11-13T15:57:04;22.83;;;8.97;;
21095;SDS011;10706;49.036;12.112;2022-11-13T15:59:40;28.27;;;10.93;;
21095;SDS011;10706;49.036;12.112;2022-11-13T16:02:09;27.63;;;11.97;;
21095;SDS011;10706;49.036;12.112;2022-11-13T16:04:35;24.13;;;11.03;;
21095;SDS011;10706;49.036;12.112;2022-11-13T16:07:03;31.30;;;10.97;;
21095;SDS011;10706;49.036;12.112;2022-11-13T16:09:33;26.93;;;11.57;;
21095;SDS011;10706;49.036;12.112;2022-11-13T16:11:59;27.77;;;12.40;;
21095;SDS011;10706;49.036;12.112;2022-11-13T16:14:25;26.50;;;10.20;;
21095;SDS011;10706;49.036;12.112;2022-11-13T16:16:51;23.70;;;10.83;;
21095;SDS011;10706;49.036;12.112;2022-11-13T16:19:20;25.47;;;10.77;;
21095;SDS011;10706;49.036;12.112;2022-11-13T16:21:48;24.83;;;10.90;;
21095;SDS011;10706;49.036;12.112;2022-11-13T16:24:14;25.93;;;11.13;;
21095;SDS011;10706;49.036;12.112;2022-11-13T16:26:46;28.47;;;12.37;;
21095;SDS011;10706;49.036;12.112;2022-11-13T16:29:16;27.60;;;12.17;;